sensor_id;sensor_type;location;lat;lon;timestamp;temperature;humidity
20182;DHT22;10250;50.756;6.172;2022-09-29T00:01:04;7.30;99.90
20182;DHT22;10250;50.756;6.172;2022-09-29T00:03:06;7.40;99.90
20182;DHT22;10250;50.756;6.172;2022-09-29T00:05:07;7.40;99.90
20182;DHT22;10250;50.756;6.172;2022-09-29T00:07:07;7.70;99.90
20182;DHT22;10250;50.756;6.172;2022-09-29T00:09:08;7.60;99.90
20182;DHT22;10250;50.756;6.172;2022-09-29T00:11:11;7.80;99.90
20182;DHT22;10250;50.756;6.172;2022-09-29T00:13:12;7.80;99.90
20182;DHT22;10250;50.756;6.172;2022-09-29T00:15:13;7.90;99.90
20182;DHT22;10250;50.756;6.172;2022-09-29T00:17:14;7.80;99.90
20182;DHT22;10250;50.756;6.172;2022-09-29T00:19:15;7.80;99.90
20182;DHT22;10250;50.756;6.172;2022-09-29T00:21:17;7.80;99.90
20182;DHT22;10250;50.756;6.172;2022-09-29T00:23:23;8.00;99.90
20182;DHT22;10250;50.756;6.172;2022-09-29T00:25:24;8.10;99.90
20182;DHT22;10250;50.756;6.172;2022-09-29T00:27:25;8.20;99.90
20182;DHT22;10250;50.756;6.172;2022-09-29T00:29:26;8.10;99.90
20182;DHT22;10250;50.756;6.172;2022-09-29T00:31:28;8.10;99.90
20182;DHT22;10250;50.756;6.172;2022-09-29T00:33:30;8.20;99.90
20182;DHT22;10250;50.756;6.172;2022-09-29T00:35:31;8.10;99.90
20182;DHT22;10250;50.756;6.172;2022-09-29T00:37:31;8.10;99.90
20182;DHT22;10250;50.756;6.172;2022-09-29T00:39:32;8.30;99.90
20182;DHT22;10250;50.756;6.172;2022-09-29T00:41:34;8.20;99.90
20182;DHT22;10250;50.756;6.172;2022-09-29T00:43:52;8.10;99.90
20182;DHT22;10250;50.756;6.172;2022-09-29T00:45:54;7.90;99.90
20182;DHT22;10250;50.756;6.172;2022-09-29T00:48:12;7.80;99.90
20182;DHT22;10250;50.756;6.172;2022-09-29T00:50:19;8.00;99.90
20182;DHT22;10250;50.756;6.172;2022-09-29T00:52:25;8.10;99.90
20182;DHT22;10250;50.756;6.172;2022-09-29T00:54:30;8.10;99.90
20182;DHT22;10250;50.756;6.172;2022-09-29T00:56:33;8.20;99.90
20182;DHT22;10250;50.756;6.172;2022-09-29T00:58:39;8.20;99.90
20182;DHT22;10250;50.756;6.172;2022-09-29T01:00:42;8.20;99.90
20182;DHT22;10250;50.756;6.172;2022-09-29T01:02:50;8.00;99.90
20182;DHT22;10250;50.756;6.172;2022-09-29T01:04:53;8.10;99.90
20182;DHT22;10250;50.756;6.172;2022-09-29T01:06:56;8.10;99.90
20182;DHT22;10250;50.756;6.172;2022-09-29T01:09:05;8.10;99.90
20182;DHT22;10250;50.756;6.172;2022-09-29T01:11:09;8.30;99.90
20182;DHT22;10250;50.756;6.172;2022-09-29T01:13:10;8.10;99.90
20182;DHT22;10250;50.756;6.172;2022-09-29T01:15:13;8.00;99.90
20182;DHT22;10250;50.756;6.172;2022-09-29T01:17:16;8.30;99.90
20182;DHT22;10250;50.756;6.172;2022-09-29T01:21:58;8.10;99.90
20182;DHT22;10250;50.756;6.172;2022-09-29T01:24:35;8.30;99.90
20182;DHT22;10250;50.756;6.172;2022-09-29T01:39:35;8.20;99.90
20182;DHT22;10250;50.756;6.172;2022-09-29T01:41:54;8.50;99.90
20182;DHT22;10250;50.756;6.172;2022-09-29T01:46:15;8.20;99.90
20182;DHT22;10250;50.756;6.172;2022-09-29T01:48:24;8.30;99.90
20182;DHT22;10250;50.756;6.172;2022-09-29T01:50:47;8.20;99.90
20182;DHT22;10250;50.756;6.172;2022-09-29T01:52:55;8.30;99.90
20182;DHT22;10250;50.756;6.172;2022-09-29T01:55:00;8.20;99.90
20182;DHT22;10250;50.756;6.172;2022-09-29T01:57:07;8.40;99.90
20182;DHT22;10250;50.756;6.172;2022-09-29T01:59:25;8.40;99.90
20182;DHT22;10250;50.756;6.172;2022-09-29T02:01:31;8.30;99.90
20182;DHT22;10250;50.756;6.172;2022-09-29T02:03:37;8.30;99.90
20182;DHT22;10250;50.756;6.172;2022-09-29T02:05:54;8.40;99.90
20182;DHT22;10250;50.756;6.172;2022-09-29T02:08:01;8.50;99.90
20182;DHT22;10250;50.756;6.172;2022-09-29T02:10:11;8.30;99.90
20182;DHT22;10250;50.756;6.172;2022-09-29T02:12:17;8.20;99.90
20182;DHT22;10250;50.756;6.172;2022-09-29T02:14:23;8.10;99.90
20182;DHT22;10250;50.756;6.172;2022-09-29T02:16:29;8.00;99.90
20182;DHT22;10250;50.756;6.172;2022-09-29T02:18:36;8.10;99.90
20182;DHT22;10250;50.756;6.172;2022-09-29T02:20:37;7.80;99.90
20182;DHT22;10250;50.756;6.172;2022-09-29T02:22:39;7.80;99.90
20182;DHT22;10250;50.756;6.172;2022-09-29T02:24:41;7.90;99.90
20182;DHT22;10250;50.756;6.172;2022-09-29T02:26:42;8.10;99.90
20182;DHT22;10250;50.756;6.172;2022-09-29T02:28:44;8.10;99.90
20182;DHT22;10250;50.756;6.172;2022-09-29T02:30:45;8.30;99.90
20182;DHT22;10250;50.756;6.172;2022-09-29T02:32:48;8.20;99.90
20182;DHT22;10250;50.756;6.172;2022-09-29T02:34:50;8.20;99.90
20182;DHT22;10250;50.756;6.172;2022-09-29T02:39:07;7.80;99.90
20182;DHT22;10250;50.756;6.172;2022-09-29T02:43:52;8.20;99.90
20182;DHT22;10250;50.756;6.172;2022-09-29T02:50:51;7.40;99.90
20182;DHT22;10250;50.756;6.172;2022-09-29T02:55:36;7.30;99.90
20182;DHT22;10250;50.756;6.172;2022-09-29T03:00:08;7.20;99.90
20182;DHT22;10250;50.756;6.172;2022-09-29T03:02:10;7.00;99.90
20182;DHT22;10250;50.756;6.172;2022-09-29T03:04:11;7.00;99.90
20182;DHT22;10250;50.756;6.172;2022-09-29T03:06:12;7.00;99.90
20182;DHT22;10250;50.756;6.172;2022-09-29T03:08:13;7.00;99.90
20182;DHT22;10250;50.756;6.172;2022-09-29T03:10:15;7.00;99.90
20182;DHT22;10250;50.756;6.172;2022-09-29T03:12:16;6.90;99.90
20182;DHT22;10250;50.756;6.172;2022-09-29T03:14:17;6.90;99.90
20182;DHT22;10250;50.756;6.172;2022-09-29T03:16:18;7.10;99.90
20182;DHT22;10250;50.756;6.172;2022-09-29T03:18:18;7.10;99.90
20182;DHT22;10250;50.756;6.172;2022-09-29T03:20:22;7.30;99.90
20182;DHT22;10250;50.756;6.172;2022-09-29T03:22:23;7.30;99.90
20182;DHT22;10250;50.756;6.172;2022-09-29T03:24:23;6.90;99.90
20182;DHT22;10250;50.756;6.172;2022-09-29T03:26:24;7.00;99.90
20182;DHT22;10250;50.756;6.172;2022-09-29T03:28:25;7.10;99.90
20182;DHT22;10250;50.756;6.172;2022-09-29T03:30:25;7.10;99.90
20182;DHT22;10250;50.756;6.172;2022-09-29T03:32:26;6.90;99.90
20182;DHT22;10250;50.756;6.172;2022-09-29T03:34:27;7.10;99.90
20182;DHT22;10250;50.756;6.172;2022-09-29T03:36:28;7.30;99.90
20182;DHT22;10250;50.756;6.172;2022-09-29T03:38:31;7.30;99.90
20182;DHT22;10250;50.756;6.172;2022-09-29T03:40:31;7.10;99.90
20182;DHT22;10250;50.756;6.172;2022-09-29T03:42:32;6.80;99.90
20182;DHT22;10250;50.756;6.172;2022-09-29T03:44:32;6.70;99.90
20182;DHT22;10250;50.756;6.172;2022-09-29T03:46:33;6.80;99.90
20182;DHT22;10250;50.756;6.172;2022-09-29T03:48:33;6.60;99.90
20182;DHT22;10250;50.756;6.172;2022-09-29T03:50:34;6.70;99.90
20182;DHT22;10250;50.756;6.172;2022-09-29T03:52:35;6.90;99.90
20182;DHT22;10250;50.756;6.172;2022-09-29T03:54:36;7.00;99.90
20182;DHT22;10250;50.756;6.172;2022-09-29T03:56:36;7.00;99.90
20182;DHT22;10250;50.756;6.172;2022-09-29T03:58:37;6.70;99.90
20182;DHT22;10250;50.756;6.172;2022-09-29T04:00:38;6.80;99.90
20182;DHT22;10250;50.756;6.172;2022-09-29T04:02:38;7.00;99.90
20182;DHT22;10250;50.756;6.172;2022-09-29T04:04:39;7.10;99.90
20182;DHT22;10250;50.756;6.172;2022-09-29T04:06:40;7.00;99.90
20182;DHT22;10250;50.756;6.172;2022-09-29T04:08:41;7.00;99.90
20182;DHT22;10250;50.756;6.172;2022-09-29T04:10:41;6.90;99.90
20182;DHT22;10250;50.756;6.172;2022-09-29T04:12:42;6.80;99.90
20182;DHT22;10250;50.756;6.172;2022-09-29T04:14:43;7.00;99.90
20182;DHT22;10250;50.756;6.172;2022-09-29T04:16:43;7.00;99.90
20182;DHT22;10250;50.756;6.172;2022-09-29T04:18:44;7.10;99.90
20182;DHT22;10250;50.756;6.172;2022-09-29T04:20:44;7.40;99.90
20182;DHT22;10250;50.756;6.172;2022-09-29T04:22:45;7.20;99.90
20182;DHT22;10250;50.756;6.172;2022-09-29T04:24:45;7.00;99.90
20182;DHT22;10250;50.756;6.172;2022-09-29T04:26:47;7.00;99.90
20182;DHT22;10250;50.756;6.172;2022-09-29T04:28:48;6.90;99.90
20182;DHT22;10250;50.756;6.172;2022-09-29T04:30:48;6.90;99.90
20182;DHT22;10250;50.756;6.172;2022-09-29T04:32:49;6.70;99.90
20182;DHT22;10250;50.756;6.172;2022-09-29T04:34:49;6.70;99.90
20182;DHT22;10250;50.756;6.172;2022-09-29T04:36:50;6.80;99.90
20182;DHT22;10250;50.756;6.172;2022-09-29T04:38:53;7.10;99.90
20182;DHT22;10250;50.756;6.172;2022-09-29T04:40:54;7.20;99.90
20182;DHT22;10250;50.756;6.172;2022-09-29T04:42:54;7.20;99.90
20182;DHT22;10250;50.756;6.172;2022-09-29T04:44:55;7.30;99.90
20182;DHT22;10250;50.756;6.172;2022-09-29T04:46:55;6.80;99.90
20182;DHT22;10250;50.756;6.172;2022-09-29T04:48:56;6.40;99.90
20182;DHT22;10250;50.756;6.172;2022-09-29T04:50:57;6.40;99.90
20182;DHT22;10250;50.756;6.172;2022-09-29T04:52:57;6.40;99.90
20182;DHT22;10250;50.756;6.172;2022-09-29T04:54:58;6.70;99.90
20182;DHT22;10250;50.756;6.172;2022-09-29T04:56:59;6.90;99.90
20182;DHT22;10250;50.756;6.172;2022-09-29T04:59:00;7.10;99.90
20182;DHT22;10250;50.756;6.172;2022-09-29T05:01:06;6.90;99.90
20182;DHT22;10250;50.756;6.172;2022-09-29T05:03:07;6.80;99.90
20182;DHT22;10250;50.756;6.172;2022-09-29T05:05:08;6.70;99.90
20182;DHT22;10250;50.756;6.172;2022-09-29T05:07:09;6.40;99.90
20182;DHT22;10250;50.756;6.172;2022-09-29T05:09:10;6.30;99.90
20182;DHT22;10250;50.756;6.172;2022-09-29T05:11:11;6.20;99.90
20182;DHT22;10250;50.756;6.172;2022-09-29T05:13:12;6.30;99.90
20182;DHT22;10250;50.756;6.172;2022-09-29T05:15:15;6.30;99.90
20182;DHT22;10250;50.756;6.172;2022-09-29T05:17:16;6.40;99.90
20182;DHT22;10250;50.756;6.172;2022-09-29T05:19:17;6.50;99.90
20182;DHT22;10250;50.756;6.172;2022-09-29T05:21:20;6.50;99.90
20182;DHT22;10250;50.756;6.172;2022-09-29T05:23:21;6.70;99.90
20182;DHT22;10250;50.756;6.172;2022-09-29T05:25:22;6.80;99.90
20182;DHT22;10250;50.756;6.172;2022-09-29T05:27:22;6.70;99.90
20182;DHT22;10250;50.756;6.172;2022-09-29T05:29:23;6.80;99.90
20182;DHT22;10250;50.756;6.172;2022-09-29T05:31:23;6.70;99.90
20182;DHT22;10250;50.756;6.172;2022-09-29T05:33:24;6.60;99.90
20182;DHT22;10250;50.756;6.172;2022-09-29T05:35:24;6.60;99.90
20182;DHT22;10250;50.756;6.172;2022-09-29T05:37:25;6.90;99.90
20182;DHT22;10250;50.756;6.172;2022-09-29T05:39:26;6.80;99.90
20182;DHT22;10250;50.756;6.172;2022-09-29T05:41:26;7.00;99.90
20182;DHT22;10250;50.756;6.172;2022-09-29T05:43:28;7.20;99.90
20182;DHT22;10250;50.756;6.172;2022-09-29T05:45:28;7.30;99.90
20182;DHT22;10250;50.756;6.172;2022-09-29T05:47:29;7.30;99.90
20182;DHT22;10250;50.756;6.172;2022-09-29T05:49:29;7.10;99.90
20182;DHT22;10250;50.756;6.172;2022-09-29T05:51:32;7.20;99.90
20182;DHT22;10250;50.756;6.172;2022-09-29T05:53:33;7.00;99.90
20182;DHT22;10250;50.756;6.172;2022-09-29T05:55:37;6.80;99.90
20182;DHT22;10250;50.756;6.172;2022-09-29T05:57:38;7.20;99.90
20182;DHT22;10250;50.756;6.172;2022-09-29T05:59:38;7.20;99.90
20182;DHT22;10250;50.756;6.172;2022-09-29T06:01:40;7.40;99.90
20182;DHT22;10250;50.756;6.172;2022-09-29T06:03:41;7.20;99.90
20182;DHT22;10250;50.756;6.172;2022-09-29T06:05:42;7.50;99.90
20182;DHT22;10250;50.756;6.172;2022-09-29T06:07:42;7.60;99.90
20182;DHT22;10250;50.756;6.172;2022-09-29T06:09:43;7.50;99.90
20182;DHT22;10250;50.756;6.172;2022-09-29T06:11:43;7.30;99.90
20182;DHT22;10250;50.756;6.172;2022-09-29T06:13:46;7.30;99.90
20182;DHT22;10250;50.756;6.172;2022-09-29T06:15:47;7.50;99.90
20182;DHT22;10250;50.756;6.172;2022-09-29T06:17:54;7.40;99.90
20182;DHT22;10250;50.756;6.172;2022-09-29T06:19:55;7.30;99.90
20182;DHT22;10250;50.756;6.172;2022-09-29T06:21:55;7.30;99.90
20182;DHT22;10250;50.756;6.172;2022-09-29T06:23:56;7.60;99.90
20182;DHT22;10250;50.756;6.172;2022-09-29T06:25:58;7.70;99.90
20182;DHT22;10250;50.756;6.172;2022-09-29T06:27:59;7.50;99.90
20182;DHT22;10250;50.756;6.172;2022-09-29T06:29:59;7.70;99.90
20182;DHT22;10250;50.756;6.172;2022-09-29T06:32:00;7.80;99.90
20182;DHT22;10250;50.756;6.172;2022-09-29T06:34:03;7.90;99.90
20182;DHT22;10250;50.756;6.172;2022-09-29T06:36:34;7.90;99.90
20182;DHT22;10250;50.756;6.172;2022-09-29T06:38:53;8.10;99.90
20182;DHT22;10250;50.756;6.172;2022-09-29T06:40:54;8.00;99.90
20182;DHT22;10250;50.756;6.172;2022-09-29T06:42:55;8.10;99.90
20182;DHT22;10250;50.756;6.172;2022-09-29T06:44:55;8.20;99.90
20182;DHT22;10250;50.756;6.172;2022-09-29T06:46:57;8.40;99.90
20182;DHT22;10250;50.756;6.172;2022-09-29T06:48:57;8.40;99.90
20182;DHT22;10250;50.756;6.172;2022-09-29T06:50:58;8.00;99.90
20182;DHT22;10250;50.756;6.172;2022-09-29T06:53:00;8.30;99.90
20182;DHT22;10250;50.756;6.172;2022-09-29T06:55:00;8.30;99.90
20182;DHT22;10250;50.756;6.172;2022-09-29T06:57:01;8.30;99.90
20182;DHT22;10250;50.756;6.172;2022-09-29T06:59:01;8.40;99.90
20182;DHT22;10250;50.756;6.172;2022-09-29T07:01:02;8.30;99.90
20182;DHT22;10250;50.756;6.172;2022-09-29T07:03:05;8.40;99.90
20182;DHT22;10250;50.756;6.172;2022-09-29T07:05:05;8.30;99.90
20182;DHT22;10250;50.756;6.172;2022-09-29T07:07:06;8.30;99.90
20182;DHT22;10250;50.756;6.172;2022-09-29T07:09:07;8.00;99.90
20182;DHT22;10250;50.756;6.172;2022-09-29T07:11:10;8.00;99.90
20182;DHT22;10250;50.756;6.172;2022-09-29T07:13:10;8.30;99.90
20182;DHT22;10250;50.756;6.172;2022-09-29T07:15:12;8.50;99.90
20182;DHT22;10250;50.756;6.172;2022-09-29T07:17:13;8.80;99.90
20182;DHT22;10250;50.756;6.172;2022-09-29T07:19:15;9.10;99.90
20182;DHT22;10250;50.756;6.172;2022-09-29T07:21:17;8.90;99.90
20182;DHT22;10250;50.756;6.172;2022-09-29T07:23:18;8.50;99.90
20182;DHT22;10250;50.756;6.172;2022-09-29T07:25:19;8.60;99.90
20182;DHT22;10250;50.756;6.172;2022-09-29T07:27:20;8.70;99.90
20182;DHT22;10250;50.756;6.172;2022-09-29T07:29:23;8.80;99.90
20182;DHT22;10250;50.756;6.172;2022-09-29T07:31:24;8.80;99.90
20182;DHT22;10250;50.756;6.172;2022-09-29T07:33:24;9.00;99.90
20182;DHT22;10250;50.756;6.172;2022-09-29T07:35:25;9.10;99.90
20182;DHT22;10250;50.756;6.172;2022-09-29T07:37:26;9.20;99.90
20182;DHT22;10250;50.756;6.172;2022-09-29T07:39:27;9.30;99.90
20182;DHT22;10250;50.756;6.172;2022-09-29T07:41:28;9.30;99.90
20182;DHT22;10250;50.756;6.172;2022-09-29T07:43:29;9.60;99.90
20182;DHT22;10250;50.756;6.172;2022-09-29T07:45:29;9.60;99.90
20182;DHT22;10250;50.756;6.172;2022-09-29T07:47:30;9.70;99.90
20182;DHT22;10250;50.756;6.172;2022-09-29T07:49:31;9.80;99.90
20182;DHT22;10250;50.756;6.172;2022-09-29T07:51:31;10.00;99.90
20182;DHT22;10250;50.756;6.172;2022-09-29T07:53:33;10.10;99.90
20182;DHT22;10250;50.756;6.172;2022-09-29T07:55:34;10.30;99.90
20182;DHT22;10250;50.756;6.172;2022-09-29T07:57:34;10.60;99.90
20182;DHT22;10250;50.756;6.172;2022-09-29T07:59:35;10.60;99.90
20182;DHT22;10250;50.756;6.172;2022-09-29T08:01:35;10.60;99.90
20182;DHT22;10250;50.756;6.172;2022-09-29T08:03:37;10.70;99.90
20182;DHT22;10250;50.756;6.172;2022-09-29T08:05:40;10.70;99.90
20182;DHT22;10250;50.756;6.172;2022-09-29T08:07:41;10.90;99.90
20182;DHT22;10250;50.756;6.172;2022-09-29T08:09:41;10.80;99.90
20182;DHT22;10250;50.756;6.172;2022-09-29T08:11:43;10.90;99.90
20182;DHT22;10250;50.756;6.172;2022-09-29T08:13:43;11.00;99.90
20182;DHT22;10250;50.756;6.172;2022-09-29T08:15:44;11.20;99.90
20182;DHT22;10250;50.756;6.172;2022-09-29T08:17:45;11.20;99.90
20182;DHT22;10250;50.756;6.172;2022-09-29T08:19:46;11.30;99.90
20182;DHT22;10250;50.756;6.172;2022-09-29T08:21:47;11.30;99.90
20182;DHT22;10250;50.756;6.172;2022-09-29T08:23:49;11.40;99.90
20182;DHT22;10250;50.756;6.172;2022-09-29T08:25:57;11.40;99.90
20182;DHT22;10250;50.756;6.172;2022-09-29T08:27:58;11.50;99.90
20182;DHT22;10250;50.756;6.172;2022-09-29T08:29:58;11.80;99.90
20182;DHT22;10250;50.756;6.172;2022-09-29T08:32:00;11.90;99.90
20182;DHT22;10250;50.756;6.172;2022-09-29T08:34:01;11.70;99.90
20182;DHT22;10250;50.756;6.172;2022-09-29T08:36:02;11.50;99.90
20182;DHT22;10250;50.756;6.172;2022-09-29T08:38:05;11.60;99.90
20182;DHT22;10250;50.756;6.172;2022-09-29T08:40:06;11.50;99.90
20182;DHT22;10250;50.756;6.172;2022-09-29T08:44:41;11.50;99.90
20182;DHT22;10250;50.756;6.172;2022-09-29T08:48:58;11.60;99.90
20182;DHT22;10250;50.756;6.172;2022-09-29T08:51:04;11.60;99.90
20182;DHT22;10250;50.756;6.172;2022-09-29T08:53:09;11.80;99.90
20182;DHT22;10250;50.756;6.172;2022-09-29T08:57:18;11.60;99.90
20182;DHT22;10250;50.756;6.172;2022-09-29T08:59:19;11.80;99.90
20182;DHT22;10250;50.756;6.172;2022-09-29T09:05:31;12.10;99.90
20182;DHT22;10250;50.756;6.172;2022-09-29T09:10:28;12.40;99.90
20182;DHT22;10250;50.756;6.172;2022-09-29T09:13:13;12.50;99.90
20182;DHT22;10250;50.756;6.172;2022-09-29T09:22:22;12.50;99.90
20182;DHT22;10250;50.756;6.172;2022-09-29T09:24:44;12.50;99.90
20182;DHT22;10250;50.756;6.172;2022-09-29T09:26:47;12.50;99.90
20182;DHT22;10250;50.756;6.172;2022-09-29T09:28:52;12.50;99.90
20182;DHT22;10250;50.756;6.172;2022-09-29T09:31:40;12.50;99.90
20182;DHT22;10250;50.756;6.172;2022-09-29T09:33:48;12.60;35.30
20182;DHT22;10250;50.756;6.172;2022-09-29T09:35:57;12.50;99.90
20182;DHT22;10250;50.756;6.172;2022-09-29T09:38:03;12.40;1.00
20182;DHT22;10250;50.756;6.172;2022-09-29T09:40:17;12.40;99.90
20182;DHT22;10250;50.756;6.172;2022-09-29T09:42:23;12.40;61.50
20182;DHT22;10250;50.756;6.172;2022-09-29T09:44:39;12.40;99.90
20182;DHT22;10250;50.756;6.172;2022-09-29T09:46:48;12.40;1.00
20182;DHT22;10250;50.756;6.172;2022-09-29T09:51:01;12.40;99.90
20182;DHT22;10250;50.756;6.172;2022-09-29T09:53:27;12.60;1.00
20182;DHT22;10250;50.756;6.172;2022-09-29T09:55:30;12.70;1.00
20182;DHT22;10250;50.756;6.172;2022-09-29T09:57:57;12.70;1.00
20182;DHT22;10250;50.756;6.172;2022-09-29T10:00:34;12.50;99.90
20182;DHT22;10250;50.756;6.172;2022-09-29T10:02:53;12.40;99.90
20182;DHT22;10250;50.756;6.172;2022-09-29T10:04:54;12.40;1.00
20182;DHT22;10250;50.756;6.172;2022-09-29T10:06:56;12.50;1.00
20182;DHT22;10250;50.756;6.172;2022-09-29T10:08:56;12.40;1.00
20182;DHT22;10250;50.756;6.172;2022-09-29T10:10:58;12.50;1.00
20182;DHT22;10250;50.756;6.172;2022-09-29T10:13:04;12.60;89.80
20182;DHT22;10250;50.756;6.172;2022-09-29T10:15:17;12.60;99.90
20182;DHT22;10250;50.756;6.172;2022-09-29T10:17:23;12.70;1.00
20182;DHT22;10250;50.756;6.172;2022-09-29T10:20:00;12.80;45.90
20182;DHT22;10250;50.756;6.172;2022-09-29T10:22:12;12.90;81.10
20182;DHT22;10250;50.756;6.172;2022-09-29T10:24:27;12.90;99.90
20182;DHT22;10250;50.756;6.172;2022-09-29T10:26:38;12.90;99.90
20182;DHT22;10250;50.756;6.172;2022-09-29T10:28:43;13.00;81.10
20182;DHT22;10250;50.756;6.172;2022-09-29T10:30:44;13.10;99.90
20182;DHT22;10250;50.756;6.172;2022-09-29T10:32:45;13.00;1.00
20182;DHT22;10250;50.756;6.172;2022-09-29T10:34:50;12.90;1.00
20182;DHT22;10250;50.756;6.172;2022-09-29T10:37:03;12.90;1.00
20182;DHT22;10250;50.756;6.172;2022-09-29T10:39:04;12.90;31.00
20182;DHT22;10250;50.756;6.172;2022-09-29T10:41:06;13.10;1.00
20182;DHT22;10250;50.756;6.172;2022-09-29T10:43:26;13.10;99.90
20182;DHT22;10250;50.756;6.172;2022-09-29T10:45:46;13.00;1.00
20182;DHT22;10250;50.756;6.172;2022-09-29T10:48:10;13.00;99.90
20182;DHT22;10250;50.756;6.172;2022-09-29T10:50:16;13.10;1.00
20182;DHT22;10250;50.756;6.172;2022-09-29T10:52:25;13.20;1.00
20182;DHT22;10250;50.756;6.172;2022-09-29T10:54:30;13.20;1.00
20182;DHT22;10250;50.756;6.172;2022-09-29T10:56:32;13.30;1.00
20182;DHT22;10250;50.756;6.172;2022-09-29T10:58:39;13.20;1.00
20182;DHT22;10250;50.756;6.172;2022-09-29T11:00:47;13.20;77.40
20182;DHT22;10250;50.756;6.172;2022-09-29T11:02:48;13.20;1.00
20182;DHT22;10250;50.756;6.172;2022-09-29T11:04:49;13.30;1.00
20182;DHT22;10250;50.756;6.172;2022-09-29T11:06:51;13.50;1.00
20182;DHT22;10250;50.756;6.172;2022-09-29T11:11:26;13.40;99.90
20182;DHT22;10250;50.756;6.172;2022-09-29T11:15:37;13.60;99.90
20182;DHT22;10250;50.756;6.172;2022-09-29T11:17:39;13.70;99.90
20182;DHT22;10250;50.756;6.172;2022-09-29T11:19:48;13.70;99.90
20182;DHT22;10250;50.756;6.172;2022-09-29T11:26:32;13.60;99.90
20182;DHT22;10250;50.756;6.172;2022-09-29T11:31:30;13.70;99.90
20182;DHT22;10250;50.756;6.172;2022-09-29T11:36:01;13.70;99.90
20182;DHT22;10250;50.756;6.172;2022-09-29T11:45:11;13.90;99.90
20182;DHT22;10250;50.756;6.172;2022-09-29T11:47:35;13.80;99.90
20182;DHT22;10250;50.756;6.172;2022-09-29T11:54:45;13.70;99.90
20182;DHT22;10250;50.756;6.172;2022-09-29T12:04:09;13.90;1.00
20182;DHT22;10250;50.756;6.172;2022-09-29T12:08:37;13.80;1.00
20182;DHT22;10250;50.756;6.172;2022-09-29T12:11:00;13.80;99.90
20182;DHT22;10250;50.756;6.172;2022-09-29T12:17:20;13.80;1.00
20182;DHT22;10250;50.756;6.172;2022-09-29T12:19:25;13.70;99.90
20182;DHT22;10250;50.756;6.172;2022-09-29T12:21:35;13.60;99.90
20182;DHT22;10250;50.756;6.172;2022-09-29T12:23:38;13.60;99.90
20182;DHT22;10250;50.756;6.172;2022-09-29T12:28:23;13.70;99.90
20182;DHT22;10250;50.756;6.172;2022-09-29T12:30:28;13.70;99.90
20182;DHT22;10250;50.756;6.172;2022-09-29T12:32:34;13.80;99.90
20182;DHT22;10250;50.756;6.172;2022-09-29T12:34:58;13.90;99.90
20182;DHT22;10250;50.756;6.172;2022-09-29T12:37:35;13.90;99.90
20182;DHT22;10250;50.756;6.172;2022-09-29T12:42:00;13.90;99.90
20182;DHT22;10250;50.756;6.172;2022-09-29T12:44:18;13.80;99.90
20182;DHT22;10250;50.756;6.172;2022-09-29T12:46:44;13.80;99.90
20182;DHT22;10250;50.756;6.172;2022-09-29T12:50:56;13.90;99.90
20182;DHT22;10250;50.756;6.172;2022-09-29T12:55:18;13.80;99.90
20182;DHT22;10250;50.756;6.172;2022-09-29T12:57:35;13.90;99.90
20182;DHT22;10250;50.756;6.172;2022-09-29T12:59:43;14.10;99.90
20182;DHT22;10250;50.756;6.172;2022-09-29T13:01:50;14.10;99.90
20182;DHT22;10250;50.756;6.172;2022-09-29T13:06:55;13.90;99.90
20182;DHT22;10250;50.756;6.172;2022-09-29T13:11:46;13.90;99.90
20182;DHT22;10250;50.756;6.172;2022-09-29T13:16:41;13.80;99.90
20182;DHT22;10250;50.756;6.172;2022-09-29T13:19:16;13.60;99.90
20182;DHT22;10250;50.756;6.172;2022-09-29T13:21:37;13.40;99.90
20182;DHT22;10250;50.756;6.172;2022-09-29T13:28:44;13.60;1.00
20182;DHT22;10250;50.756;6.172;2022-09-29T13:30:47;13.60;31.30
20182;DHT22;10250;50.756;6.172;2022-09-29T13:32:53;13.60;99.90
20182;DHT22;10250;50.756;6.172;2022-09-29T13:34:57;13.50;1.00
20182;DHT22;10250;50.756;6.172;2022-09-29T13:37:25;13.40;34.70
20182;DHT22;10250;50.756;6.172;2022-09-29T13:39:27;13.40;29.40
20182;DHT22;10250;50.756;6.172;2022-09-29T13:48:34;13.50;1.00
20182;DHT22;10250;50.756;6.172;2022-09-29T13:50:51;13.50;99.90
20182;DHT22;10250;50.756;6.172;2022-09-29T13:52:52;13.50;1.00
20182;DHT22;10250;50.756;6.172;2022-09-29T13:54:52;13.50;1.00
20182;DHT22;10250;50.756;6.172;2022-09-29T13:59:14;13.60;1.00
20182;DHT22;10250;50.756;6.172;2022-09-29T14:01:35;13.50;1.00
20182;DHT22;10250;50.756;6.172;2022-09-29T14:03:41;13.60;99.90
20182;DHT22;10250;50.756;6.172;2022-09-29T14:05:46;13.60;1.00
20182;DHT22;10250;50.756;6.172;2022-09-29T14:08:05;13.60;99.90
20182;DHT22;10250;50.756;6.172;2022-09-29T14:12:23;13.60;1.00
20182;DHT22;10250;50.756;6.172;2022-09-29T14:14:33;13.50;1.00
20182;DHT22;10250;50.756;6.172;2022-09-29T14:19:04;13.40;11.10
20182;DHT22;10250;50.756;6.172;2022-09-29T14:21:12;13.30;1.00
20182;DHT22;10250;50.756;6.172;2022-09-29T14:25:47;13.10;99.90
20182;DHT22;10250;50.756;6.172;2022-09-29T14:30:53;13.00;99.90
20182;DHT22;10250;50.756;6.172;2022-09-29T14:32:40;13.00;1.00
20182;DHT22;10250;50.756;6.172;2022-09-29T14:34:42;13.00;99.90
20182;DHT22;10250;50.756;6.172;2022-09-29T14:36:45;13.00;1.00
20182;DHT22;10250;50.756;6.172;2022-09-29T14:38:49;13.10;1.00
20182;DHT22;10250;50.756;6.172;2022-09-29T14:41:23;13.00;1.00
20182;DHT22;10250;50.756;6.172;2022-09-29T14:46:06;13.10;1.00
20182;DHT22;10250;50.756;6.172;2022-09-29T14:48:38;13.10;1.00
20182;DHT22;10250;50.756;6.172;2022-09-29T14:51:12;13.10;99.90
20182;DHT22;10250;50.756;6.172;2022-09-29T15:01:26;13.10;99.90
20182;DHT22;10250;50.756;6.172;2022-09-29T15:03:30;13.20;1.00
20182;DHT22;10250;50.756;6.172;2022-09-29T15:05:35;13.30;48.40
20182;DHT22;10250;50.756;6.172;2022-09-29T15:07:39;13.20;99.90
20182;DHT22;10250;50.756;6.172;2022-09-29T15:09:45;13.20;1.00
20182;DHT22;10250;50.756;6.172;2022-09-29T15:11:56;13.30;1.00
20182;DHT22;10250;50.756;6.172;2022-09-29T15:14:26;13.30;1.00
20182;DHT22;10250;50.756;6.172;2022-09-29T15:16:41;13.20;99.90
20182;DHT22;10250;50.756;6.172;2022-09-29T15:21:31;13.30;1.00
20182;DHT22;10250;50.756;6.172;2022-09-29T15:23:52;13.30;99.90
20182;DHT22;10250;50.756;6.172;2022-09-29T15:25:56;13.20;1.00
20182;DHT22;10250;50.756;6.172;2022-09-29T15:28:03;13.20;1.00
20182;DHT22;10250;50.756;6.172;2022-09-29T15:30:15;13.30;1.00
20182;DHT22;10250;50.756;6.172;2022-09-29T15:32:27;13.30;1.00
20182;DHT22;10250;50.756;6.172;2022-09-29T15:34:28;13.30;99.90
20182;DHT22;10250;50.756;6.172;2022-09-29T15:36:34;13.30;1.00
20182;DHT22;10250;50.756;6.172;2022-09-29T15:38:37;13.30;1.00
20182;DHT22;10250;50.756;6.172;2022-09-29T15:40:39;13.30;71.90
20182;DHT22;10250;50.756;6.172;2022-09-29T15:42:40;13.30;1.00
20182;DHT22;10250;50.756;6.172;2022-09-29T15:45:14;13.30;99.90
20182;DHT22;10250;50.756;6.172;2022-09-29T15:47:36;13.20;99.90
20182;DHT22;10250;50.756;6.172;2022-09-29T15:49:49;13.10;99.90
20182;DHT22;10250;50.756;6.172;2022-09-29T15:53:56;13.10;1.00
20182;DHT22;10250;50.756;6.172;2022-09-29T15:56:00;13.00;99.90